createdAt,value
2022-10-13T00:01:38.153Z,645.97
2022-10-13T00:04:07.056Z,574.13
2022-10-13T00:06:34.551Z,669.63
2022-10-13T00:09:02.133Z,601.35
2022-10-13T00:11:31.224Z,474.63
2022-10-13T00:14:01.544Z,365.90
2022-10-13T00:16:30.730Z,780.53
2022-10-13T00:18:58.984Z,646.67
2022-10-13T00:21:28.860Z,218.43
2022-10-13T00:23:57.150Z,165.38
2022-10-13T00:26:26.000Z,219.07
2022-10-13T00:28:54.691Z,123.40
2022-10-13T00:31:24.239Z,113.93
2022-10-13T00:33:52.790Z,108.35
2022-10-13T00:36:20.734Z,115.85
2022-10-13T00:38:49.722Z,131.23
2022-10-13T00:41:17.683Z,114.45
2022-10-13T00:43:51.334Z,105.28
2022-10-13T00:46:18.967Z,111.33
2022-10-13T00:48:48.081Z,102.75
2022-10-13T00:51:19.005Z,98.57
2022-10-13T00:53:50.361Z,104.65
2022-10-13T00:56:20.468Z,115.07
2022-10-13T00:58:49.819Z,115.90
2022-10-13T01:01:17.892Z,109.72
2022-10-13T01:03:45.536Z,94.80
2022-10-13T01:06:14.264Z,104.05
2022-10-13T01:08:41.791Z,100.25
2022-10-13T01:11:36.786Z,93.05
2022-10-13T01:14:25.136Z,93.93
2022-10-13T01:17:02.131Z,99.82
2022-10-13T01:19:58.193Z,82.47
2022-10-13T01:22:45.537Z,93.72
2022-10-13T01:25:27.979Z,93.25
2022-10-13T01:28:19.738Z,88.28
2022-10-13T01:30:53.163Z,92.90
2022-10-13T01:33:31.410Z,88.82
2022-10-13T01:36:07.805Z,83.68
2022-10-13T01:38:40.875Z,92.88
2022-10-13T01:41:14.794Z,89.30
2022-10-13T01:43:46.632Z,99.70
2022-10-13T01:46:18.392Z,91.18
2022-10-13T01:48:46.692Z,91.18
2022-10-13T01:51:19.759Z,92.75
2022-10-13T01:53:48.526Z,264.45
2022-10-13T01:56:16.430Z,440.08
2022-10-13T01:58:44.519Z,851.85
2022-10-13T02:01:35.880Z,774.25
2022-10-13T02:04:15.762Z,514.65
2022-10-13T02:06:48.667Z,878.60
2022-10-13T02:09:24.164Z,542.13
2022-10-13T02:11:58.965Z,732.85
2022-10-13T02:14:30.673Z,489.00
2022-10-13T02:17:02.516Z,480.60
2022-10-13T02:19:31.616Z,395.35
2022-10-13T02:21:59.692Z,218.10
2022-10-13T02:24:27.551Z,514.22
2022-10-13T02:26:55.145Z,223.27
2022-10-13T02:29:22.897Z,302.23
2022-10-13T02:31:50.416Z,190.45
2022-10-13T02:34:19.314Z,239.98
2022-10-13T02:36:46.880Z,466.20
2022-10-13T02:39:14.482Z,632.75
2022-10-13T02:41:42.048Z,595.97
2022-10-13T02:44:09.619Z,649.67
2022-10-13T02:46:37.155Z,662.28
2022-10-13T02:49:04.703Z,579.55
2022-10-13T02:51:38.933Z,484.23
2022-10-13T02:54:07.567Z,632.13
2022-10-13T02:56:35.165Z,384.55
2022-10-13T02:59:02.695Z,347.40
2022-10-13T03:01:30.394Z,276.33
2022-10-13T03:03:57.963Z,529.53
2022-10-13T03:06:25.649Z,526.15
2022-10-13T03:08:54.515Z,493.13
2022-10-13T03:11:22.028Z,533.38
2022-10-13T03:13:49.528Z,445.15
2022-10-13T03:16:17.080Z,467.13
2022-10-13T03:18:44.794Z,434.63
2022-10-13T03:21:12.421Z,815.75
2022-10-13T03:23:39.945Z,820.35
2022-10-13T03:26:08.869Z,479.40
2022-10-13T03:28:36.546Z,465.13
2022-10-13T03:31:05.801Z,322.35
2022-10-13T03:33:33.342Z,197.35
2022-10-13T03:36:01.786Z,169.35
2022-10-13T03:38:30.265Z,154.77
2022-10-13T03:40:57.783Z,153.65
2022-10-13T03:43:26.703Z,144.82
2022-10-13T03:45:58.241Z,170.77
2022-10-13T03:48:25.899Z,167.27
2022-10-13T03:50:53.680Z,179.45
2022-10-13T03:53:21.993Z,184.68
2022-10-13T03:55:50.648Z,160.55
2022-10-13T03:58:18.512Z,162.68
2022-10-13T04:00:47.510Z,138.13
2022-10-13T04:03:15.059Z,158.27
2022-10-13T04:05:42.688Z,175.07
2022-10-13T04:08:11.500Z,171.18
2022-10-13T04:10:39.077Z,145.00
2022-10-13T04:13:06.781Z,165.85
2022-10-13T04:15:37.264Z,153.93
2022-10-13T04:18:07.389Z,150.45
2022-10-13T04:20:38.052Z,147.57
2022-10-13T04:23:05.699Z,131.63
2022-10-13T04:25:35.892Z,129.32
2022-10-13T04:28:03.741Z,145.10
2022-10-13T04:30:31.254Z,162.75
2022-10-13T04:32:58.764Z,164.88
2022-10-13T04:35:27.662Z,189.80
2022-10-13T04:37:57.392Z,183.55
2022-10-13T04:40:24.980Z,204.85
2022-10-13T04:42:52.666Z,296.15
2022-10-13T04:45:20.289Z,256.55
2022-10-13T04:47:47.813Z,314.33
2022-10-13T04:50:15.336Z,585.15
2022-10-13T04:52:44.238Z,394.38
2022-10-13T04:55:11.942Z,327.70
2022-10-13T04:57:39.488Z,443.17
2022-10-13T05:00:08.603Z,460.33
2022-10-13T05:02:36.677Z,453.42
2022-10-13T05:05:04.541Z,532.08
2022-10-13T05:07:32.075Z,460.10
2022-10-13T05:10:00.961Z,464.27
2022-10-13T05:12:28.478Z,593.47
2022-10-13T05:14:57.057Z,533.15
2022-10-13T05:17:24.584Z,539.70
2022-10-13T05:19:52.584Z,609.85
2022-10-13T05:22:20.373Z,570.33
2022-10-13T05:24:48.067Z,507.27
2022-10-13T05:27:16.904Z,486.77
2022-10-13T05:29:44.399Z,502.02
2022-10-13T05:32:11.871Z,422.83
2022-10-13T05:34:39.381Z,412.85
2022-10-13T05:37:07.006Z,476.55
2022-10-13T05:39:34.531Z,406.88
2022-10-13T05:42:02.079Z,335.95
2022-10-13T05:44:30.976Z,481.60
2022-10-13T05:46:58.503Z,374.67
2022-10-13T05:49:26.038Z,385.80
2022-10-13T05:51:56.550Z,427.20
2022-10-13T05:54:30.059Z,267.63
2022-10-13T05:57:02.627Z,404.23
2022-10-13T05:59:35.207Z,408.45
2022-10-13T06:02:04.084Z,422.73
2022-10-13T06:04:36.742Z,401.58
2022-10-13T06:07:04.507Z,326.95
2022-10-13T06:09:35.694Z,304.30
2022-10-13T06:12:03.229Z,322.25
2022-10-13T06:14:32.105Z,339.65
2022-10-13T06:16:59.779Z,451.00
2022-10-13T06:19:27.356Z,458.60
2022-10-13T06:21:54.948Z,360.00
2022-10-13T06:24:22.479Z,398.23
2022-10-13T06:26:49.977Z,216.73
2022-10-13T06:29:17.497Z,325.38
2022-10-13T06:31:46.334Z,307.73
2022-10-13T06:34:14.151Z,326.55
2022-10-13T06:36:42.078Z,190.23
2022-10-13T06:39:10.295Z,199.77
2022-10-13T06:41:38.109Z,172.95
2022-10-13T06:44:06.104Z,154.07
2022-10-13T06:46:33.614Z,151.10
2022-10-13T06:49:02.464Z,131.60
2022-10-13T06:51:29.996Z,136.00
2022-10-13T06:53:57.717Z,128.10
2022-10-13T06:56:25.241Z,133.30
2022-10-13T06:58:52.778Z,126.78
2022-10-13T07:01:20.348Z,127.03
2022-10-13T07:03:49.782Z,130.35
2022-10-13T07:06:18.938Z,125.00
2022-10-13T07:08:46.832Z,135.43
2022-10-13T07:11:16.705Z,116.05
2022-10-13T07:13:46.594Z,106.22
2022-10-13T07:16:15.500Z,108.72
2022-10-13T07:18:43.028Z,119.75
2022-10-13T07:21:10.648Z,100.38
2022-10-13T07:23:39.593Z,93.97
2022-10-13T07:26:08.767Z,109.38
2022-10-13T07:28:36.381Z,97.57
2022-10-13T07:31:10.883Z,86.28
2022-10-13T07:33:38.861Z,87.50
2022-10-13T07:36:06.847Z,85.20
2022-10-13T07:38:34.415Z,79.82
2022-10-13T07:41:03.981Z,83.78
2022-10-13T07:43:31.911Z,88.63
2022-10-13T07:46:00.430Z,87.13
2022-10-13T07:48:29.115Z,103.30
2022-10-13T07:50:56.601Z,91.13
2022-10-13T07:53:24.350Z,84.90
2022-10-13T07:55:51.914Z,83.88
2022-10-13T07:58:20.821Z,84.57
2022-10-13T08:00:57.094Z,86.57
2022-10-13T08:03:24.646Z,76.85
2022-10-13T08:05:52.291Z,74.90
2022-10-13T08:08:20.059Z,81.60
2022-10-13T08:10:47.929Z,82.03
2022-10-13T08:13:15.625Z,81.22
2022-10-13T08:15:46.383Z,68.80
2022-10-13T08:18:15.347Z,55.58
2022-10-13T08:20:44.250Z,60.13
2022-10-13T08:23:12.793Z,55.33
2022-10-13T08:25:40.816Z,53.33
2022-10-13T08:28:17.715Z,57.25
2022-10-13T08:30:47.006Z,52.08
2022-10-13T08:33:14.690Z,51.05
2022-10-13T08:35:42.743Z,50.47
2022-10-13T08:38:10.391Z,48.10
2022-10-13T08:40:38.721Z,48.35
2022-10-13T08:43:07.466Z,52.50
2022-10-13T08:45:41.347Z,44.25
2022-10-13T08:48:16.833Z,44.60
2022-10-13T08:50:47.551Z,34.15
2022-10-13T08:53:23.709Z,37.75
2022-10-13T08:55:55.370Z,34.25
2022-10-13T08:58:24.778Z,32.15
2022-10-13T09:00:58.682Z,31.63
2022-10-13T09:03:29.374Z,35.67
2022-10-13T09:06:07.555Z,39.50
2022-10-13T09:08:41.303Z,29.33
2022-10-13T09:11:11.612Z,32.35
2022-10-13T09:13:39.145Z,34.08
2022-10-13T09:16:07.850Z,54.88
2022-10-13T09:18:37.647Z,50.38
2022-10-13T09:21:17.682Z,37.15
2022-10-13T09:23:45.330Z,42.22
2022-10-13T09:26:19.955Z,54.28
2022-10-13T09:28:47.585Z,33.15
2022-10-13T09:31:18.623Z,33.70
2022-10-13T09:33:51.893Z,36.30
2022-10-13T09:36:19.381Z,39.97
2022-10-13T09:39:08.357Z,37.78
2022-10-13T09:41:36.555Z,39.60
2022-10-13T09:44:14.982Z,37.83
2022-10-13T09:46:49.368Z,40.13
2022-10-13T09:49:32.481Z,41.45
2022-10-13T09:52:03.680Z,39.70
2022-10-13T09:54:41.587Z,39.90
2022-10-13T09:57:17.423Z,39.25
2022-10-13T09:59:49.501Z,32.40
2022-10-13T10:02:26.696Z,29.08
2022-10-13T10:04:59.568Z,35.63
2022-10-13T10:07:30.909Z,38.45
2022-10-13T10:10:02.362Z,34.47
2022-10-13T10:12:34.758Z,30.42
2022-10-13T10:15:02.345Z,38.60
2022-10-13T10:17:37.635Z,38.70
2022-10-13T10:20:24.237Z,31.98
2022-10-13T10:23:00.332Z,39.80
2022-10-13T10:25:34.560Z,33.42
2022-10-13T10:28:18.736Z,38.53
2022-10-13T10:30:52.865Z,40.72
2022-10-13T10:33:22.730Z,41.28
2022-10-13T10:35:56.212Z,30.77
2022-10-13T10:38:34.479Z,32.95
2022-10-13T10:41:10.983Z,33.60
2022-10-13T10:43:48.074Z,32.80
2022-10-13T10:46:22.534Z,29.60
2022-10-13T10:48:54.679Z,31.15
2022-10-13T10:51:26.517Z,48.03
2022-10-13T10:54:03.580Z,37.15
2022-10-13T10:56:35.476Z,38.00
2022-10-13T10:59:26.912Z,32.72
2022-10-13T11:02:05.292Z,32.65
2022-10-13T11:04:41.606Z,35.85
2022-10-13T11:07:51.260Z,33.95
2022-10-13T11:10:22.605Z,39.85
2022-10-13T11:13:22.985Z,33.15
2022-10-13T11:15:50.668Z,37.75
2022-10-13T11:19:10.242Z,28.98
2022-10-13T11:22:24.366Z,40.80
2022-10-13T11:25:33.972Z,44.25
2022-10-13T11:28:43.896Z,41.72
2022-10-13T11:31:33.558Z,40.78
2022-10-13T11:34:03.684Z,38.25
2022-10-13T11:36:53.060Z,42.75
2022-10-13T11:39:39.426Z,35.40
2022-10-13T11:42:21.114Z,39.42
2022-10-13T11:44:55.518Z,35.72
2022-10-13T11:47:53.843Z,41.13
2022-10-13T11:50:30.235Z,41.00
2022-10-13T11:53:11.429Z,32.00
2022-10-13T11:55:48.179Z,31.83
2022-10-13T11:58:18.418Z,42.15
2022-10-13T12:00:55.932Z,49.72
2022-10-13T12:03:27.397Z,33.15
2022-10-13T12:05:58.868Z,36.13
2022-10-13T12:08:28.272Z,33.25
2022-10-13T12:10:58.242Z,35.92
2022-10-13T12:13:28.239Z,86.95
2022-10-13T12:16:03.311Z,62.28
2022-10-13T12:18:34.064Z,33.60
2022-10-13T12:21:04.142Z,87.45
2022-10-13T12:23:33.481Z,27.92
2022-10-13T12:26:01.471Z,26.80
2022-10-13T12:28:31.872Z,28.17
2022-10-13T12:31:01.468Z,25.50
2022-10-13T12:33:31.554Z,33.33
2022-10-13T12:36:12.901Z,31.65
2022-10-13T12:38:46.594Z,28.50
2022-10-13T12:41:17.949Z,28.25
2022-10-13T12:43:46.120Z,29.35
2022-10-13T12:46:38.307Z,26.70
2022-10-13T12:49:06.265Z,24.42
2022-10-13T12:51:35.465Z,21.85
2022-10-13T12:54:08.473Z,26.08
2022-10-13T12:56:41.805Z,23.88
2022-10-13T12:59:17.628Z,22.95
2022-10-13T13:01:53.269Z,22.15
2022-10-13T13:04:31.272Z,20.67
2022-10-13T13:07:00.754Z,22.33
2022-10-13T13:09:30.325Z,21.95
2022-10-13T13:12:20.792Z,40.58
2022-10-13T13:14:49.817Z,37.53
2022-10-13T13:20:23.811Z,24.70
2022-10-13T13:22:51.797Z,56.03
2022-10-13T13:25:19.729Z,35.50
2022-10-13T13:27:47.295Z,29.45
2022-10-13T13:30:17.135Z,28.52
2022-10-13T13:32:46.202Z,28.92
2022-10-13T13:35:14.108Z,63.90
2022-10-13T13:37:44.861Z,32.35
2022-10-13T13:40:17.019Z,34.05
2022-10-13T13:42:44.823Z,86.07
2022-10-13T13:45:13.471Z,78.65
2022-10-13T13:47:41.045Z,139.13
2022-10-13T13:50:16.992Z,72.50
2022-10-13T13:52:44.493Z,114.38
2022-10-13T13:55:12.031Z,137.88
2022-10-13T13:57:39.559Z,155.32
2022-10-13T14:00:08.254Z,164.80
2022-10-13T14:02:35.823Z,148.20
2022-10-13T14:05:03.889Z,119.20
2022-10-13T14:07:32.804Z,123.95
2022-10-13T14:10:02.112Z,143.02
2022-10-13T14:12:30.565Z,147.60
2022-10-13T14:14:58.476Z,122.28
2022-10-13T14:17:26.161Z,73.53
2022-10-13T14:19:53.800Z,138.13
2022-10-13T14:22:22.871Z,182.32
2022-10-13T14:24:52.038Z,168.75
2022-10-13T14:27:19.615Z,117.60
2022-10-13T14:29:47.167Z,125.00
2022-10-13T14:32:14.761Z,135.80
2022-10-13T14:34:42.304Z,150.48
2022-10-13T14:37:09.840Z,111.28
2022-10-13T14:39:37.360Z,84.15
2022-10-13T14:42:06.311Z,37.72
2022-10-13T14:44:33.801Z,45.67
2022-10-13T14:47:01.491Z,36.00
2022-10-13T14:49:29.036Z,76.93
2022-10-13T14:51:56.587Z,130.23
2022-10-13T14:54:24.943Z,123.65
2022-10-13T14:56:52.670Z,118.60
2022-10-13T14:59:21.647Z,117.18
2022-10-13T15:01:49.945Z,51.83
2022-10-13T15:04:17.460Z,65.50
2022-10-13T15:06:45.047Z,85.53
2022-10-13T15:09:12.842Z,114.47
2022-10-13T15:11:40.462Z,110.45
2022-10-13T15:14:09.634Z,133.93
2022-10-13T15:16:38.612Z,73.10
2022-10-13T15:19:06.788Z,83.53
2022-10-13T15:21:34.326Z,72.90
2022-10-13T15:24:02.381Z,34.63
2022-10-13T15:26:29.968Z,31.85
2022-10-13T15:28:57.590Z,28.85
2022-10-13T15:31:25.340Z,31.77
2022-10-13T15:33:55.093Z,25.40
2022-10-13T15:36:23.646Z,26.30
2022-10-13T15:38:52.121Z,42.25
2022-10-13T15:41:21.391Z,48.92
2022-10-13T15:43:48.900Z,62.20
2022-10-13T15:46:21.341Z,81.75
2022-10-13T15:48:49.157Z,65.68
2022-10-13T15:51:20.392Z,84.97
2022-10-13T15:53:48.315Z,71.35
2022-10-13T15:56:16.278Z,75.80
2022-10-13T15:58:43.924Z,73.18
2022-10-13T16:01:14.198Z,81.57
2022-10-13T16:03:42.244Z,71.38
2022-10-13T16:06:12.195Z,96.60
2022-10-13T16:08:43.656Z,95.03
2022-10-13T16:11:12.149Z,92.63
2022-10-13T16:13:39.859Z,93.18
2022-10-13T16:16:07.820Z,95.13
2022-10-13T16:18:37.859Z,74.50
2022-10-13T16:21:11.431Z,66.50
2022-10-13T16:23:42.181Z,78.93
2022-10-13T16:26:10.480Z,73.72
2022-10-13T16:28:38.549Z,89.05
2022-10-13T16:31:08.484Z,76.55
2022-10-13T16:33:36.536Z,63.40
2022-10-13T16:36:04.781Z,54.80
2022-10-13T16:38:32.320Z,82.80
2022-10-13T16:41:04.475Z,72.70
2022-10-13T16:43:32.610Z,47.35
2022-10-13T16:46:01.905Z,50.50
2022-10-13T16:48:30.735Z,61.50
2022-10-13T16:50:58.500Z,105.78
2022-10-13T16:53:26.007Z,127.32
2022-10-13T16:55:53.585Z,68.05
2022-10-13T16:58:22.545Z,109.53
2022-10-13T17:00:50.119Z,81.55
2022-10-13T17:03:17.825Z,33.53
2022-10-13T17:05:45.327Z,29.90
2022-10-13T17:08:12.865Z,28.15
2022-10-13T17:10:40.380Z,26.63
2022-10-13T17:13:07.900Z,32.55
2022-10-13T17:15:36.763Z,35.08
2022-10-13T17:18:04.303Z,39.70
2022-10-13T17:20:31.835Z,44.25
2022-10-13T17:22:59.309Z,49.35
2022-10-13T17:25:26.819Z,48.55
2022-10-13T17:27:54.323Z,52.42
2022-10-13T17:30:22.113Z,55.15
2022-10-13T17:32:52.077Z,54.55
2022-10-13T17:35:19.593Z,58.30
2022-10-13T17:37:50.218Z,58.35
2022-10-13T17:40:17.900Z,60.22
2022-10-13T17:42:45.421Z,60.47
2022-10-13T17:45:13.038Z,59.55
2022-10-13T17:47:40.584Z,63.10
2022-10-13T17:50:10.379Z,54.47
2022-10-13T17:52:37.901Z,63.30
2022-10-13T17:55:06.230Z,65.50
2022-10-13T17:57:33.819Z,65.30
2022-10-13T18:00:01.363Z,72.55
2022-10-13T18:02:28.867Z,63.42
2022-10-13T18:04:56.361Z,61.28
2022-10-13T18:07:25.218Z,67.80
2022-10-13T18:09:53.043Z,61.92
2022-10-13T18:12:20.971Z,69.05
2022-10-13T18:14:48.519Z,64.30
2022-10-13T18:17:16.049Z,59.55
2022-10-13T18:19:43.784Z,61.42
2022-10-13T18:22:11.681Z,58.80
2022-10-13T18:24:40.553Z,53.67
2022-10-13T18:27:08.078Z,53.28
2022-10-13T18:29:35.602Z,54.53
2022-10-13T18:32:03.137Z,50.00
2022-10-13T18:34:30.891Z,51.05
2022-10-13T18:36:58.541Z,57.28
2022-10-13T18:39:28.621Z,68.78
2022-10-13T18:41:57.976Z,51.28
2022-10-13T18:44:26.017Z,52.58
2022-10-13T18:46:56.320Z,54.55
2022-10-13T18:49:30.726Z,53.20
2022-10-13T18:51:59.141Z,61.42
2022-10-13T18:54:27.332Z,54.08
2022-10-13T18:56:54.873Z,75.90
2022-10-13T18:59:23.916Z,50.00
2022-10-13T19:01:51.809Z,49.30
2022-10-13T19:04:21.284Z,65.18
2022-10-13T19:06:49.116Z,67.70
2022-10-13T19:09:17.341Z,60.75
2022-10-13T19:11:45.362Z,58.22
2022-10-13T19:14:14.228Z,53.15
2022-10-13T19:16:44.755Z,47.67
2022-10-13T19:19:13.179Z,45.40
2022-10-13T19:21:41.107Z,43.47
2022-10-13T19:24:09.220Z,40.22
2022-10-13T19:26:37.374Z,43.70
2022-10-13T19:29:08.261Z,39.67
2022-10-13T19:31:37.438Z,37.40
2022-10-13T19:34:06.353Z,40.92
2022-10-13T19:36:37.368Z,42.92
2022-10-13T19:39:07.802Z,53.20
2022-10-13T19:41:35.921Z,88.18
2022-10-13T19:44:03.619Z,110.38
2022-10-13T19:46:31.204Z,53.17
2022-10-13T19:48:58.708Z,38.47
2022-10-13T19:51:27.569Z,37.25
2022-10-13T19:53:55.137Z,35.33
2022-10-13T19:56:25.105Z,32.92
2022-10-13T19:58:53.106Z,38.42
2022-10-13T20:01:21.468Z,34.88
2022-10-13T20:03:49.170Z,39.85
2022-10-13T20:06:18.077Z,46.70
2022-10-13T20:08:47.367Z,52.92
2022-10-13T20:11:23.418Z,60.22
2022-10-13T20:13:52.728Z,58.75
2022-10-13T20:16:22.949Z,58.78
2022-10-13T20:18:53.349Z,53.65
2022-10-13T20:21:21.165Z,65.47
2022-10-13T20:23:50.648Z,66.00
2022-10-13T20:26:18.973Z,56.90
2022-10-13T20:28:48.471Z,61.40
2022-10-13T20:31:19.185Z,63.92
2022-10-13T20:33:49.317Z,61.35
2022-10-13T20:36:18.429Z,68.85
2022-10-13T20:38:46.712Z,71.22
2022-10-13T20:41:19.474Z,77.05
2022-10-13T20:43:47.441Z,73.63
2022-10-13T20:46:16.890Z,65.95
2022-10-13T20:49:09.261Z,61.67
2022-10-13T20:51:32.933Z,70.00
2022-10-13T20:54:00.446Z,68.72
2022-10-13T20:56:29.359Z,69.60
2022-10-13T20:58:57.122Z,63.70
2022-10-13T21:01:24.668Z,57.83
2022-10-13T21:03:52.832Z,53.50
2022-10-13T21:06:20.679Z,45.97
2022-10-13T21:08:48.356Z,62.95
2022-10-13T21:11:17.852Z,67.60
2022-10-13T21:13:47.056Z,70.72
2022-10-13T21:16:17.555Z,66.90
2022-10-13T21:18:47.857Z,68.72
2022-10-13T21:21:17.115Z,69.75
2022-10-13T21:23:44.811Z,72.20
2022-10-13T21:26:16.243Z,63.08
2022-10-13T21:28:47.933Z,59.30
2022-10-13T21:31:16.792Z,77.88
2022-10-13T21:33:44.799Z,53.03
2022-10-13T21:36:14.700Z,49.85
2022-10-13T21:38:43.153Z,45.67
2022-10-13T21:41:12.899Z,50.58
2022-10-13T21:43:40.843Z,56.78
2022-10-13T21:46:14.630Z,62.33
2022-10-13T21:48:42.347Z,63.15
2022-10-13T21:51:14.441Z,58.90
2022-10-13T21:53:42.521Z,61.72
2022-10-13T21:56:11.821Z,61.30
2022-10-13T21:58:39.432Z,61.47
2022-10-13T22:01:07.992Z,61.58
2022-10-13T22:03:36.941Z,65.90
2022-10-13T22:06:06.681Z,59.35
2022-10-13T22:08:38.537Z,61.85
2022-10-13T22:11:08.385Z,57.67
2022-10-13T22:13:37.139Z,58.65
2022-10-13T22:16:05.616Z,67.28
2022-10-13T22:18:33.194Z,56.65
2022-10-13T22:21:03.079Z,60.13
2022-10-13T22:23:31.259Z,63.28
2022-10-13T22:25:58.940Z,61.20
2022-10-13T22:28:26.663Z,61.38
2022-10-13T22:30:54.641Z,58.25
2022-10-13T22:33:22.303Z,59.90
2022-10-13T22:35:49.817Z,54.90
2022-10-13T22:38:18.688Z,54.85
2022-10-13T22:40:46.187Z,54.25
2022-10-13T22:43:13.720Z,59.45
2022-10-13T22:45:50.551Z,64.15
2022-10-13T22:48:18.064Z,62.05
2022-10-13T22:50:45.743Z,62.28
2022-10-13T22:53:13.303Z,65.03
2022-10-13T22:55:42.363Z,61.83
2022-10-13T22:58:09.956Z,62.20
2022-10-13T23:00:38.512Z,63.83
2022-10-13T23:03:06.872Z,63.13
2022-10-13T23:05:34.531Z,59.22
2022-10-13T23:08:02.056Z,57.65
2022-10-13T23:10:29.575Z,61.97
2022-10-13T23:12:58.439Z,68.75
2022-10-13T23:15:25.956Z,63.42
2022-10-13T23:17:53.460Z,62.92
2022-10-13T23:20:21.047Z,65.30
2022-10-13T23:22:48.557Z,67.00
2022-10-13T23:25:16.151Z,62.65
2022-10-13T23:27:43.671Z,66.68
2022-10-13T23:30:13.919Z,60.90
2022-10-13T23:32:41.463Z,66.65
2022-10-13T23:35:09.600Z,55.88
2022-10-13T23:37:37.139Z,57.67
2022-10-13T23:40:05.318Z,56.70
2022-10-13T23:42:32.881Z,58.35
2022-10-13T23:45:00.396Z,62.38
2022-10-13T23:47:29.259Z,58.17
2022-10-13T23:49:56.767Z,53.47
2022-10-13T23:52:24.327Z,61.45
2022-10-13T23:54:51.866Z,58.92
2022-10-13T23:57:19.574Z,48.35
2022-10-13T23:59:47.499Z,49.28
